createdAt,value
2018-06-02T00:02:22.745Z,70.80
2018-06-02T00:04:50.972Z,71.10
2018-06-02T00:07:19.208Z,71.30
2018-06-02T00:09:47.453Z,71.20
2018-06-02T00:12:16.461Z,71.80
2018-06-02T00:14:44.692Z,72.50
2018-06-02T00:17:12.942Z,71.50
2018-06-02T00:19:41.301Z,72.00
2018-06-02T00:22:09.538Z,71.90
2018-06-02T00:24:38.652Z,70.00
2018-06-02T00:27:07.914Z,68.70
2018-06-02T00:29:36.154Z,68.60
2018-06-02T00:32:04.386Z,68.60
2018-06-02T00:34:33.402Z,68.20
2018-06-02T00:37:01.634Z,68.10
2018-06-02T00:39:29.870Z,67.80
2018-06-02T00:41:58.119Z,67.40
2018-06-02T00:44:26.358Z,67.50
2018-06-02T00:46:54.761Z,67.10
2018-06-02T00:49:23.762Z,66.90
2018-06-02T00:51:52.762Z,66.70
2018-06-02T00:57:54.930Z,67.30
2018-06-02T01:00:23.178Z,67.40
2018-06-02T01:02:51.519Z,68.10
2018-06-02T01:05:19.734Z,68.00
2018-06-02T01:07:47.982Z,67.30
2018-06-02T01:10:16.214Z,66.50
2018-06-02T01:12:45.526Z,67.20
2018-06-02T01:15:13.766Z,67.20
2018-06-02T01:17:41.994Z,67.20
2018-06-02T01:20:10.238Z,67.50
2018-06-02T01:22:39.246Z,68.00
2018-06-02T01:25:07.488Z,67.90
2018-06-02T01:27:35.719Z,68.00
2018-06-02T01:30:03.950Z,68.10
2018-06-02T01:32:33.374Z,68.60
2018-06-02T01:35:01.605Z,67.70
2018-06-02T01:37:29.840Z,67.50
2018-06-02T01:39:58.098Z,67.70
2018-06-02T01:42:27.090Z,68.20
2018-06-02T01:44:56.091Z,68.20
2018-06-02T01:47:24.341Z,68.10
2018-06-02T01:49:53.161Z,68.00
2018-06-02T01:52:21.409Z,69.10
2018-06-02T01:54:49.642Z,68.30
2018-06-02T01:57:17.877Z,69.10
2018-06-02T01:59:46.122Z,68.50
2018-06-02T02:02:14.406Z,68.30
2018-06-02T02:04:42.907Z,68.50
2018-06-02T02:07:11.902Z,68.80
2018-06-02T02:09:40.139Z,68.80
2018-06-02T02:12:08.553Z,68.90
2018-06-02T02:14:37.554Z,68.90
2018-06-02T02:17:05.786Z,68.90
2018-06-02T02:19:34.030Z,69.20
2018-06-02T02:22:02.267Z,69.20
2018-06-02T02:24:31.261Z,69.50
2018-06-02T02:27:00.284Z,69.30
2018-06-02T02:29:28.511Z,69.30
2018-06-02T02:31:56.753Z,69.70
2018-06-02T02:34:24.993Z,69.90
2018-06-02T02:36:53.237Z,70.20
2018-06-02T02:39:21.642Z,70.30
2018-06-02T02:41:50.734Z,70.70
2018-06-02T02:44:19.734Z,70.60
2018-06-02T02:46:48.412Z,70.60
2018-06-02T02:49:17.405Z,71.20
2018-06-02T02:51:46.502Z,71.40
2018-06-02T02:54:15.519Z,71.50
2018-06-02T02:56:43.757Z,71.40
2018-06-02T02:59:11.981Z,71.30
2018-06-02T03:01:40.226Z,71.40
2018-06-02T03:04:08.462Z,71.60
2018-06-02T03:06:36.698Z,71.40
2018-06-02T03:09:04.950Z,71.70
2018-06-02T03:11:33.199Z,71.60
2018-06-02T03:14:01.437Z,71.60
2018-06-02T03:16:29.882Z,71.70
2018-06-02T03:18:58.130Z,71.80
2018-06-02T03:21:26.358Z,71.80
2018-06-02T03:23:54.609Z,72.10
2018-06-02T03:26:22.834Z,72.10
2018-06-02T03:28:51.070Z,72.30
2018-06-02T03:31:19.314Z,72.60
2018-06-02T03:33:48.333Z,73.00
2018-06-02T03:36:17.337Z,73.20
2018-06-02T03:38:45.569Z,73.10
2018-06-02T03:41:15.432Z,73.40
2018-06-02T03:43:43.678Z,73.40
2018-06-02T03:46:12.698Z,73.60
2018-06-02T03:48:40.943Z,73.50
2018-06-02T03:51:09.941Z,73.70
2018-06-02T03:53:38.945Z,73.70
2018-06-02T03:56:07.190Z,73.70
2018-06-02T03:58:35.442Z,73.90
2018-06-02T04:01:03.686Z,74.00
2018-06-02T04:03:31.917Z,74.00
2018-06-02T04:06:00.161Z,74.00
2018-06-02T04:08:28.394Z,74.00
2018-06-02T04:10:56.626Z,74.10
2018-06-02T04:13:24.878Z,74.10
2018-06-02T04:15:53.156Z,74.40
2018-06-02T04:18:22.317Z,74.10
2018-06-02T04:20:50.581Z,74.10
2018-06-02T04:23:19.581Z,74.40
2018-06-02T04:25:48.599Z,74.30
2018-06-02T04:28:16.842Z,74.20
2018-06-02T04:30:45.845Z,74.70
2018-06-02T04:33:14.854Z,74.30
2018-06-02T04:35:43.216Z,75.00
2018-06-02T04:38:11.460Z,74.40
2018-06-02T04:40:39.694Z,74.30
2018-06-02T04:43:07.943Z,74.40
2018-06-02T04:45:36.963Z,74.80
2018-06-02T04:48:05.191Z,74.70
2018-06-02T04:50:33.438Z,74.80
2018-06-02T04:53:01.682Z,74.50
2018-06-02T04:55:29.913Z,74.30
2018-06-02T04:57:58.181Z,74.20
2018-06-02T05:00:26.425Z,74.20
2018-06-02T05:02:54.663Z,74.30
2018-06-02T05:05:23.689Z,74.30
2018-06-02T05:07:51.914Z,74.20
2018-06-02T05:10:20.926Z,73.80
2018-06-02T05:12:49.166Z,73.70
2018-06-02T05:15:17.401Z,73.50
2018-06-02T05:17:45.634Z,73.20
2018-06-02T05:20:14.645Z,73.20
2018-06-02T05:22:43.642Z,73.00
2018-06-02T05:25:11.890Z,73.00
2018-06-02T05:27:40.138Z,73.20
2018-06-02T05:30:08.390Z,72.90
2018-06-02T05:32:36.639Z,73.30
2018-06-02T05:35:05.646Z,73.90
2018-06-02T05:37:33.898Z,73.80
2018-06-02T05:40:03.209Z,73.60
2018-06-02T05:42:31.450Z,73.50
2018-06-02T05:44:59.682Z,73.40
2018-06-02T05:47:27.929Z,73.20
2018-06-02T05:49:56.934Z,73.50
2018-06-02T05:52:25.302Z,73.40
2018-06-02T05:54:54.302Z,72.40
2018-06-02T05:57:22.582Z,72.20
2018-06-02T05:59:50.861Z,72.60
2018-06-02T06:02:19.842Z,73.10
2018-06-02T06:04:48.841Z,72.90
2018-06-02T06:07:17.088Z,72.90
2018-06-02T06:09:45.318Z,72.30
2018-06-02T06:12:13.562Z,72.70
2018-06-02T06:14:42.562Z,73.90
2018-06-02T06:17:10.811Z,73.90
2018-06-02T06:19:39.067Z,74.20
2018-06-02T06:22:07.289Z,72.20
2018-06-02T06:24:35.533Z,71.90
2018-06-02T06:27:03.770Z,71.50
2018-06-02T06:29:32.006Z,71.60
2018-06-02T06:32:01.027Z,71.60
2018-06-02T06:34:29.257Z,71.50
2018-06-02T06:36:57.493Z,71.20
2018-06-02T06:39:25.767Z,72.40
2018-06-02T06:41:54.016Z,72.00
2018-06-02T06:44:22.267Z,72.10
2018-06-02T06:46:50.497Z,72.70
2018-06-02T06:49:18.746Z,72.90
2018-06-02T06:51:47.019Z,72.20
2018-06-02T06:54:15.250Z,71.50
2018-06-02T06:56:43.485Z,71.10
2018-06-02T06:59:11.746Z,72.30
2018-06-02T07:01:39.974Z,71.50
2018-06-02T07:04:08.986Z,71.10
2018-06-02T07:06:37.990Z,68.90
2018-06-02T07:09:06.983Z,69.90
2018-06-02T07:11:35.999Z,70.80
2018-06-02T07:14:04.239Z,70.80
2018-06-02T07:16:32.490Z,71.40
2018-06-02T07:19:00.722Z,70.90
2018-06-02T07:21:28.958Z,70.80
2018-06-02T07:23:57.205Z,70.40
2018-06-02T07:26:25.430Z,70.40
2018-06-02T07:28:54.451Z,71.50
2018-06-02T07:31:22.681Z,71.50
2018-06-02T07:33:50.920Z,71.00
2018-06-02T07:36:19.156Z,70.60
2018-06-02T07:38:47.402Z,70.70
2018-06-02T07:41:15.702Z,70.70
2018-06-02T07:43:44.703Z,71.00
2018-06-02T07:46:12.951Z,70.80
2018-06-02T07:48:41.195Z,70.90
2018-06-02T07:51:09.425Z,71.50
2018-06-02T07:53:37.677Z,71.20
2018-06-02T07:56:05.918Z,71.20
2018-06-02T07:58:34.157Z,69.80
2018-06-02T08:01:02.398Z,67.60
2018-06-02T08:03:30.694Z,66.60
2018-06-02T08:05:59.709Z,69.20
2018-06-02T08:08:27.977Z,69.20
2018-06-02T08:10:56.211Z,70.00
2018-06-02T08:13:24.462Z,66.60
2018-06-02T08:15:52.693Z,67.20
2018-06-02T08:18:21.694Z,67.40
2018-06-02T08:20:49.940Z,67.40
2018-06-02T08:23:18.193Z,67.00
2018-06-02T08:25:46.434Z,67.20
2018-06-02T08:28:14.661Z,66.90
2018-06-02T08:30:42.914Z,67.00
2018-06-02T08:33:11.157Z,66.90
2018-06-02T08:35:39.389Z,66.40
2018-06-02T08:38:07.634Z,66.00
2018-06-02T08:40:35.874Z,66.30
2018-06-02T08:43:04.102Z,67.80
2018-06-02T08:45:32.352Z,67.20
2018-06-02T08:48:00.573Z,65.80
2018-06-02T08:50:29.583Z,66.90
2018-06-02T08:52:58.734Z,66.20
2018-06-02T08:55:26.970Z,66.00
2018-06-02T08:57:55.201Z,67.00
2018-06-02T09:00:23.481Z,67.30
2018-06-02T09:02:51.690Z,66.60
2018-06-02T09:05:19.952Z,68.80
2018-06-02T09:07:48.935Z,68.30
2018-06-02T09:10:17.942Z,70.40
2018-06-02T09:12:46.996Z,65.00
2018-06-02T09:15:15.522Z,65.00
2018-06-02T09:17:44.517Z,64.30
2018-06-02T09:20:13.516Z,61.70
2018-06-02T09:22:41.773Z,61.60
2018-06-02T09:25:10.772Z,60.20
2018-06-02T09:27:39.019Z,60.20
2018-06-02T09:30:07.258Z,60.80
2018-06-02T09:32:35.508Z,61.20
2018-06-02T09:35:03.830Z,63.00
2018-06-02T09:37:32.780Z,59.00
2018-06-02T09:40:01.026Z,59.00
2018-06-02T09:42:29.271Z,59.60
2018-06-02T09:44:57.507Z,59.40
2018-06-02T09:47:25.753Z,59.70
2018-06-02T09:49:53.990Z,60.70
2018-06-02T09:52:22.244Z,59.70
2018-06-02T09:54:50.483Z,59.90
2018-06-02T09:57:18.726Z,60.20
2018-06-02T09:59:47.258Z,60.40
2018-06-02T10:02:16.261Z,58.60
2018-06-02T10:04:44.498Z,58.50
2018-06-02T10:07:12.746Z,58.70
2018-06-02T10:09:40.990Z,59.30
2018-06-02T10:12:09.282Z,59.50
2018-06-02T10:14:37.514Z,59.30
2018-06-02T10:17:06.106Z,59.40
2018-06-02T10:19:35.102Z,60.00
2018-06-02T10:22:04.105Z,59.10
2018-06-02T10:24:32.356Z,59.10
2018-06-02T10:27:00.585Z,58.90
2018-06-02T10:29:29.032Z,57.60
2018-06-02T10:31:58.034Z,58.20
2018-06-02T10:34:26.270Z,58.20
2018-06-02T10:36:54.509Z,58.70
2018-06-02T10:39:22.746Z,59.50
2018-06-02T10:41:51.754Z,58.40
2018-06-02T10:44:20.003Z,58.90
2018-06-02T10:46:48.999Z,58.30
2018-06-02T10:49:18.029Z,57.90
2018-06-02T10:51:46.261Z,57.90
2018-06-02T10:54:15.277Z,57.80
2018-06-02T10:56:43.510Z,57.80
2018-06-02T10:59:11.758Z,57.20
2018-06-02T11:01:40.001Z,58.50
2018-06-02T11:04:09.006Z,57.80
2018-06-02T11:06:37.237Z,57.70
2018-06-02T11:09:06.225Z,58.40
2018-06-02T11:11:34.430Z,59.40
2018-06-02T11:14:03.454Z,53.90
2018-06-02T11:16:31.688Z,53.80
2018-06-02T11:19:00.693Z,55.40
2018-06-02T11:21:29.712Z,53.70
2018-06-02T11:23:57.970Z,53.70
2018-06-02T11:26:26.209Z,54.00
2018-06-02T11:28:54.455Z,53.00
2018-06-02T11:31:22.707Z,54.20
2018-06-02T11:33:50.941Z,57.90
2018-06-02T11:36:19.166Z,53.00
2018-06-02T11:38:47.414Z,52.90
2018-06-02T11:41:16.417Z,52.70
2018-06-02T11:43:44.670Z,52.70
2018-06-02T11:46:13.779Z,52.20
2018-06-02T11:48:42.782Z,52.00
2018-06-02T11:51:11.042Z,52.10
2018-06-02T11:53:40.034Z,53.00
2018-06-02T11:56:09.045Z,53.60
2018-06-02T11:58:37.336Z,53.40
2018-06-02T12:01:05.619Z,54.40
2018-06-02T12:03:33.887Z,54.80
2018-06-02T12:06:02.125Z,55.80
2018-06-02T12:08:31.338Z,56.70
2018-06-02T12:11:00.342Z,57.00
2018-06-02T12:13:28.573Z,56.90
2018-06-02T12:15:56.817Z,58.30
2018-06-02T12:18:25.049Z,59.70
2018-06-02T12:20:54.049Z,57.80
2018-06-02T12:23:22.296Z,57.80
2018-06-02T12:25:50.528Z,53.20
2018-06-02T12:28:18.800Z,54.00
2018-06-02T12:30:47.009Z,55.40
2018-06-02T12:33:15.261Z,56.60
2018-06-02T12:35:43.510Z,56.40
2018-06-02T12:38:11.783Z,58.00
2018-06-02T12:40:40.031Z,57.30
2018-06-02T12:43:08.268Z,57.40
2018-06-02T12:45:36.501Z,58.30
2018-06-02T12:48:05.514Z,57.80
2018-06-02T12:50:33.750Z,57.70
2018-06-02T12:53:02.758Z,56.00
2018-06-02T12:55:31.774Z,55.60
2018-06-02T12:58:00.011Z,55.50
2018-06-02T13:00:28.614Z,55.80
2018-06-02T13:02:57.620Z,53.10
2018-06-02T13:05:25.911Z,53.10
2018-06-02T13:07:54.141Z,52.10
2018-06-02T13:10:22.403Z,52.90
2018-06-02T13:12:50.638Z,53.00
2018-06-02T13:15:18.874Z,53.70
2018-06-02T13:17:47.889Z,51.60
2018-06-02T13:20:16.122Z,50.90
2018-06-02T13:22:44.358Z,52.10
2018-06-02T13:25:12.611Z,53.40
2018-06-02T13:27:40.846Z,54.20
2018-06-02T13:30:09.102Z,53.50
2018-06-02T13:32:37.346Z,54.50
2018-06-02T13:35:05.583Z,56.00
2018-06-02T13:37:33.831Z,53.30
2018-06-02T13:40:02.086Z,54.20
2018-06-02T13:42:30.317Z,53.10
2018-06-02T13:44:59.325Z,52.50
2018-06-02T13:47:28.337Z,53.20
2018-06-02T13:49:56.570Z,53.20
2018-06-02T13:52:24.814Z,53.10
2018-06-02T13:54:53.074Z,52.60
2018-06-02T13:57:21.527Z,52.50
2018-06-02T13:59:50.534Z,52.60
2018-06-02T14:02:18.765Z,52.60
2018-06-02T14:04:48.530Z,53.70
2018-06-02T14:07:16.757Z,53.70
2018-06-02T14:09:45.001Z,53.60
2018-06-02T14:12:13.270Z,54.00
2018-06-02T14:14:41.509Z,52.40
2018-06-02T14:17:10.522Z,54.70
2018-06-02T14:19:38.766Z,54.60
2018-06-02T14:22:07.764Z,53.50
2018-06-02T14:24:36.777Z,51.30
2018-06-02T14:27:05.024Z,51.30
2018-06-02T14:29:33.262Z,51.00
2018-06-02T14:32:01.494Z,51.20
2018-06-02T14:34:29.731Z,52.90
2018-06-02T14:36:57.989Z,49.60
2018-06-02T14:39:26.229Z,49.80
2018-06-02T14:41:54.474Z,52.30
2018-06-02T14:44:23.494Z,50.50
2018-06-02T14:46:51.741Z,50.40
2018-06-02T14:49:19.990Z,50.00
2018-06-02T14:51:48.237Z,51.30
2018-06-02T14:54:16.469Z,50.30
2018-06-02T14:56:45.781Z,51.00
2018-06-02T14:59:14.782Z,52.40
2018-06-02T15:01:43.024Z,52.30
2018-06-02T15:04:11.538Z,52.80
2018-06-02T15:06:39.774Z,51.90
2018-06-02T15:09:08.116Z,49.80
2018-06-02T15:11:36.369Z,51.00
2018-06-02T15:14:04.602Z,51.00
2018-06-02T15:16:32.841Z,51.90
2018-06-02T15:19:01.082Z,51.50
2018-06-02T15:21:30.216Z,51.90
2018-06-02T15:23:58.484Z,51.90
2018-06-02T15:26:26.727Z,52.60
2018-06-02T15:28:55.742Z,52.40
2018-06-02T15:31:23.997Z,52.40
2018-06-02T15:33:52.222Z,53.50
2018-06-02T15:36:20.469Z,53.20
2018-06-02T15:38:48.845Z,52.50
2018-06-02T15:41:17.094Z,52.50
2018-06-02T15:43:45.346Z,52.10
2018-06-02T15:46:13.589Z,52.00
2018-06-02T15:48:41.886Z,52.00
2018-06-02T15:51:10.072Z,53.80
2018-06-02T15:53:38.306Z,54.70
2018-06-02T15:56:06.769Z,55.10
2018-06-02T15:58:35.013Z,55.10
2018-06-02T16:01:03.258Z,54.90
2018-06-02T16:03:31.527Z,54.80
2018-06-02T16:05:59.737Z,54.70
2018-06-02T16:08:28.737Z,55.60
2018-06-02T16:10:56.981Z,55.60
2018-06-02T16:13:25.858Z,55.90
2018-06-02T16:15:54.107Z,55.30
2018-06-02T16:18:22.359Z,54.90
2018-06-02T16:20:50.588Z,55.40
2018-06-02T16:23:18.818Z,54.80
2018-06-02T16:25:47.838Z,55.30
2018-06-02T16:28:16.070Z,55.30
2018-06-02T16:30:44.304Z,56.00
2018-06-02T16:33:12.557Z,56.30
2018-06-02T16:35:40.785Z,55.40
2018-06-02T16:38:09.018Z,55.90
2018-06-02T16:40:37.584Z,55.90
2018-06-02T16:43:05.819Z,55.60
2018-06-02T16:45:34.057Z,55.10
2018-06-02T16:48:02.335Z,55.40
2018-06-02T16:50:30.577Z,54.80
2018-06-02T16:52:59.593Z,55.30
2018-06-02T16:55:27.873Z,55.20
2018-06-02T16:57:56.930Z,53.80
2018-06-02T17:00:25.981Z,54.10
2018-06-02T17:02:54.272Z,54.50
2018-06-02T17:05:22.589Z,55.20
2018-06-02T17:07:51.597Z,53.90
2018-06-02T17:10:20.073Z,53.80
2018-06-02T17:12:48.305Z,53.70
2018-06-02T17:15:18.096Z,53.10
2018-06-02T17:17:46.333Z,53.10
2018-06-02T17:20:14.566Z,53.90
2018-06-02T17:22:42.807Z,52.90
2018-06-02T17:25:11.053Z,52.80
2018-06-02T17:27:40.061Z,52.90
2018-06-02T17:30:08.298Z,52.80
2018-06-02T17:32:36.542Z,53.70
2018-06-02T17:35:04.777Z,54.20
2018-06-02T17:37:33.890Z,52.90
2018-06-02T17:40:02.122Z,52.90
2018-06-02T17:42:30.353Z,54.20
2018-06-02T17:44:58.602Z,53.40
2018-06-02T17:47:26.835Z,53.50
2018-06-02T17:49:55.075Z,53.00
2018-06-02T17:52:23.334Z,52.60
2018-06-02T17:54:51.574Z,52.30
2018-06-02T17:57:19.805Z,52.70
2018-06-02T17:59:48.069Z,52.10
2018-06-02T18:02:16.305Z,52.60
2018-06-02T18:04:45.310Z,54.00
2018-06-02T18:07:14.310Z,53.80
2018-06-02T18:09:43.330Z,53.90
2018-06-02T18:12:11.562Z,53.90
2018-06-02T18:14:40.578Z,54.50
2018-06-02T18:17:08.822Z,54.40
2018-06-02T18:19:37.838Z,55.20
2018-06-02T18:22:06.846Z,56.00
2018-06-02T18:24:35.096Z,55.90
2018-06-02T18:30:03.660Z,54.90
2018-06-02T18:32:31.943Z,55.10
2018-06-02T18:35:00.234Z,55.50
2018-06-02T18:37:29.370Z,55.90
2018-06-02T18:39:57.900Z,55.40
2018-06-02T18:42:26.224Z,55.40
2018-06-02T18:44:54.563Z,55.20
2018-06-02T18:47:22.959Z,56.20
2018-06-02T18:49:51.293Z,56.50
2018-06-02T18:52:19.617Z,57.30
2018-06-02T18:54:47.940Z,57.50
2018-06-02T18:57:16.215Z,57.70
2018-06-02T18:59:44.581Z,57.90
2018-06-02T19:02:12.930Z,58.20
2018-06-02T19:04:41.224Z,58.80
2018-06-02T19:07:09.519Z,58.60
2018-06-02T19:09:38.839Z,58.80
2018-06-02T19:12:07.886Z,59.00
2018-06-02T19:14:36.166Z,59.00
2018-06-02T19:17:04.466Z,59.30
2018-06-02T19:19:32.744Z,59.00
2018-06-02T19:22:01.346Z,59.40
2018-06-02T19:24:29.635Z,59.30
2018-06-02T19:26:57.940Z,59.60
2018-06-02T19:29:26.294Z,60.30
2018-06-02T19:31:54.587Z,60.30
2018-06-02T19:34:22.900Z,60.40
2018-06-02T19:36:51.757Z,60.30
2018-06-02T19:39:20.827Z,61.10
2018-06-02T19:41:49.109Z,61.00
2018-06-02T19:44:17.398Z,61.10
2018-06-02T19:46:45.676Z,61.60
2018-06-02T19:49:13.994Z,62.00
2018-06-02T19:51:42.296Z,62.10
2018-06-02T19:54:10.589Z,61.10
2018-06-02T19:56:39.675Z,59.40
2018-06-02T19:59:07.992Z,59.30
2018-06-02T20:01:36.330Z,59.90
2018-06-02T20:04:04.643Z,60.80
2018-06-02T20:06:32.940Z,61.20
2018-06-02T20:09:01.232Z,61.60
2018-06-02T20:11:30.291Z,62.00
2018-06-02T20:13:58.573Z,62.00
2018-06-02T20:16:27.040Z,62.50
2018-06-02T20:18:55.317Z,63.00
2018-06-02T20:21:23.994Z,63.50
2018-06-02T20:23:52.278Z,64.00
2018-06-02T20:26:20.563Z,63.20
2018-06-02T20:28:48.859Z,62.90
2018-06-02T20:31:17.981Z,62.00
2018-06-02T20:33:47.026Z,62.30
2018-06-02T20:36:15.313Z,62.30
2018-06-02T20:38:43.631Z,62.30
2018-06-02T20:41:11.977Z,62.90
2018-06-02T20:43:40.237Z,62.40
2018-06-02T20:46:09.378Z,62.00
2018-06-02T20:48:37.682Z,62.00
2018-06-02T20:51:07.050Z,62.40
2018-06-02T20:53:36.112Z,62.50
2018-06-02T20:56:04.376Z,62.50
2018-06-02T20:58:32.684Z,62.10
2018-06-02T21:01:00.991Z,62.60
2018-06-02T21:03:29.301Z,61.80
2018-06-02T21:05:58.353Z,62.00
2018-06-02T21:08:26.653Z,62.00
2018-06-02T21:10:54.948Z,62.00
2018-06-02T21:13:23.261Z,62.00
2018-06-02T21:15:51.599Z,62.00
2018-06-02T21:18:19.915Z,61.60
2018-06-02T21:20:48.258Z,61.60
2018-06-02T21:23:17.311Z,60.90
2018-06-02T21:25:45.621Z,60.90
2018-06-02T21:28:13.927Z,60.60
2018-06-02T21:30:42.549Z,60.30
2018-06-02T21:33:10.848Z,60.70
2018-06-02T21:35:39.170Z,60.80
2018-06-02T21:38:07.476Z,60.80
2018-06-02T21:40:36.556Z,61.60
2018-06-02T21:43:04.875Z,61.40
2018-06-02T21:45:33.242Z,61.70
2018-06-02T21:48:01.581Z,61.90
2018-06-02T21:50:30.641Z,62.50
2018-06-02T21:52:59.713Z,62.80
2018-06-02T21:55:28.086Z,62.70
2018-06-02T21:57:56.320Z,63.00
2018-06-02T22:00:24.647Z,63.10
2018-06-02T22:02:53.755Z,63.00
2018-06-02T22:05:22.849Z,63.60
2018-06-02T22:07:51.945Z,63.90
2018-06-02T22:10:20.216Z,63.80
2018-06-02T22:12:48.510Z,64.30
2018-06-02T22:15:16.808Z,64.60
2018-06-02T22:17:45.119Z,65.00
2018-06-02T22:20:14.381Z,65.80
2018-06-02T22:22:42.744Z,65.90
2018-06-02T22:25:11.037Z,65.90
2018-06-02T22:27:39.345Z,66.10
2018-06-02T22:30:07.637Z,66.30
2018-06-02T22:32:35.950Z,66.60
2018-06-02T22:35:05.756Z,66.80
2018-06-02T22:37:34.052Z,66.70
2018-06-02T22:40:02.322Z,67.10
2018-06-02T22:42:31.419Z,68.10
2018-06-02T22:44:59.731Z,68.00
2018-06-02T22:47:28.054Z,68.40
2018-06-02T22:49:56.350Z,68.80
2018-06-02T22:52:25.432Z,69.10
2018-06-02T22:54:53.723Z,69.10
2018-06-02T22:57:22.103Z,69.10
2018-06-02T22:59:50.424Z,69.40
2018-06-02T23:02:18.733Z,69.60
2018-06-02T23:04:47.010Z,69.40
2018-06-02T23:07:15.315Z,69.20
2018-06-02T23:09:43.623Z,69.40
2018-06-02T23:12:11.933Z,69.60
2018-06-02T23:14:40.225Z,69.50
2018-06-02T23:17:08.533Z,69.30
2018-06-02T23:19:36.870Z,69.40
2018-06-02T23:22:05.352Z,69.50
2018-06-02T23:24:33.653Z,69.70
2018-06-02T23:27:02.021Z,69.90
2018-06-02T23:29:31.073Z,70.50
2018-06-02T23:31:59.349Z,70.50
2018-06-02T23:34:27.632Z,70.70
2018-06-02T23:36:55.927Z,70.70
2018-06-02T23:39:24.244Z,70.90
2018-06-02T23:41:52.588Z,71.10
2018-06-02T23:44:20.900Z,70.80
2018-06-02T23:46:49.173Z,71.00
2018-06-02T23:49:17.459Z,71.00
2018-06-02T23:51:45.808Z,71.30
2018-06-02T23:54:14.892Z,71.50
2018-06-02T23:56:43.181Z,72.30
2018-06-02T23:59:11.954Z,71.50
